Time;durP1;ratioP1;P1;durP2;ratioP2;P2;SDS_P1;SDS_P2;PMS_P1;PMS_P2;Temp;Humidity;BMP_temperature;BMP_pressure;BME280_temperature;BME280_humidity;BME280_pressure;Samples;Min_cycle;Max_cycle;Signal;HPM_P1;HPM_P2
2023/08/26 00:00:16;;;;;;;16.08;10.13;;;;;;;22.43;82.14;100051.56;2099142;28;20086;-74
2023/08/26 00:01:21;;;;;;;13.90;10.15;;;;;;;22.43;82.05;100056.28;2099102;28;20964;-74
2023/08/26 00:02:26;;;;;;;19.67;10.95;;;;;;;22.41;82.04;100053.91;2099541;28;20084;-74
2023/08/26 00:03:30;;;;;;;16.95;11.55;;;;;;;22.41;82.17;100059.38;2106885;28;20041;-75
2023/08/26 00:04:33;;;;;;;16.00;10.55;;;;;;;22.39;82.33;100056.22;2099070;28;20041;-75
2023/08/26 00:05:37;;;;;;;16.20;11.40;;;;;;;22.39;82.44;100050.75;2107498;28;20021;-74
2023/08/26 00:06:39;;;;;;;18.50;12.27;;;;;;;22.38;82.25;100051.91;2115070;28;20054;-75
2023/08/26 00:08:01;;;;;;;14.57;11.27;;;;;;;22.36;82.41;100056.19;2090642;28;20025;-76
2023/08/26 00:09:10;;;;;;;19.10;12.25;;;;;;;22.33;82.90;100059.66;2087677;28;20045;-76
2023/08/26 00:10:20;;;;;;;16.20;11.35;;;;;;;22.32;82.87;100055.31;2085834;28;20030;-75
2023/08/26 00:11:30;;;;;;;14.90;9.43;;;;;;;22.31;83.11;100064.72;2098615;28;20148;-74
2023/08/26 00:12:38;;;;;;;13.38;10.30;;;;;;;22.30;83.00;100063.91;2106565;28;21542;-76
2023/08/26 00:13:39;;;;;;;17.35;10.80;;;;;;;22.30;82.97;100066.66;2108034;28;20037;-75
2023/08/26 00:14:43;;;;;;;16.02;10.25;;;;;;;22.29;82.96;100064.28;2115536;27;20024;-74
2023/08/26 00:15:45;;;;;;;13.05;9.82;;;;;;;22.29;83.04;100067.00;2108113;28;20982;-74
2023/08/26 00:16:47;;;;;;;16.45;9.88;;;;;;;22.28;83.02;100068.97;2090076;28;20053;-74
2023/08/26 00:17:53;;;;;;;15.20;10.15;;;;;;;22.29;83.03;100069.75;2092306;28;20025;-74
2023/08/26 00:18:59;;;;;;;14.98;9.57;;;;;;;22.28;83.12;100059.97;2091481;28;20036;-74
2023/08/26 00:20:01;;;;;;;16.23;9.88;;;;;;;22.27;83.06;100064.66;2099894;28;20914;-74
2023/08/26 00:21:03;;;;;;;14.35;10.13;;;;;;;22.29;83.02;100056.88;2107180;28;20825;-75
2023/08/26 00:22:09;;;;;;;15.48;10.82;;;;;;;22.27;83.04;100061.91;2099544;28;20065;-74
2023/08/26 00:23:15;;;;;;;18.70;10.15;;;;;;;22.27;83.10;100059.19;2098603;28;20064;-74
2023/08/26 00:24:17;;;;;;;14.90;9.88;;;;;;;22.25;83.14;100058.75;2091020;28;20143;-75
2023/08/26 00:25:19;;;;;;;16.30;10.80;;;;;;;22.26;83.30;100062.28;2099256;28;20017;-74
2023/08/26 00:26:21;;;;;;;16.73;10.50;;;;;;;22.24;83.19;100068.13;2098967;28;20044;-74
2023/08/26 00:27:26;;;;;;;12.15;9.15;;;;;;;22.24;83.30;100076.34;2082328;28;20037;-75
2023/08/26 00:28:31;;;;;;;15.55;9.50;;;;;;;22.25;83.49;100077.13;2083564;28;20037;-74
2023/08/26 00:29:37;;;;;;;17.77;10.20;;;;;;;22.24;83.55;100072.81;2099638;28;20110;-74
2023/08/26 00:30:42;;;;;;;12.63;9.30;;;;;;;22.23;83.66;100071.25;2098665;28;20049;-74
2023/08/26 00:31:43;;;;;;;15.73;10.00;;;;;;;22.23;83.67;100063.81;2091029;28;20183;-74
2023/08/26 00:32:45;;;;;;;13.60;9.75;;;;;;;22.21;83.65;100055.19;2081243;28;20857;-74
2023/08/26 00:33:47;;;;;;;13.00;9.10;;;;;;;22.21;83.55;100058.69;2074506;28;20896;-74
2023/08/26 00:34:52;;;;;;;13.32;10.02;;;;;;;22.21;83.72;100052.44;2094465;28;20123;-74
2023/08/26 00:35:54;;;;;;;14.48;9.90;;;;;;;22.21;83.83;100057.91;2107743;27;21216;-74
2023/08/26 00:36:56;;;;;;;14.48;9.75;;;;;;;22.20;83.94;100054.41;2098840;28;20029;-74
2023/08/26 00:37:58;;;;;;;13.77;10.48;;;;;;;22.21;83.83;100055.19;2098822;28;20057;-74
2023/08/26 00:39:05;;;;;;;14.32;9.98;;;;;;;22.23;83.82;100057.56;2092217;28;20039;-74
2023/08/26 00:40:13;;;;;;;12.80;9.93;;;;;;;22.20;83.98;100065.34;2098898;28;20325;-75
2023/08/26 00:41:15;;;;;;;15.68;10.88;;;;;;;22.19;83.81;100057.50;2097847;28;20037;-75
2023/08/26 00:42:21;;;;;;;15.05;10.38;;;;;;;22.19;83.78;100068.44;2090627;28;20860;-76
2023/08/26 00:43:26;;;;;;;13.23;10.30;;;;;;;22.18;83.77;100066.88;2092413;28;20852;-77
2023/08/26 00:44:29;;;;;;;13.93;9.63;;;;;;;22.18;83.85;100062.19;2091402;28;20810;-76
2023/08/26 00:45:35;;;;;;;14.25;10.48;;;;;;;22.17;83.96;100059.81;2091490;28;20025;-77
2023/08/26 00:46:37;;;;;;;14.25;10.23;;;;;;;22.15;83.84;100062.88;2090711;28;20974;-76
2023/08/26 00:47:39;;;;;;;18.27;10.95;;;;;;;22.16;83.79;100055.47;2074536;28;20034;-77
2023/08/26 00:48:46;;;;;;;20.55;10.43;;;;;;;22.15;83.77;100062.88;2082595;28;20026;-77
2023/08/26 00:49:51;;;;;;;14.35;11.50;;;;;;;22.15;83.89;100051.16;2093257;28;20816;-77
2023/08/26 00:50:54;;;;;;;16.85;11.45;;;;;;;22.14;83.81;100046.84;2090664;28;20133;-77
2023/08/26 00:51:58;;;;;;;17.27;12.27;;;;;;;22.14;83.68;100058.56;2076218;28;20051;-77
2023/08/26 00:53:03;;;;;;;21.30;11.48;;;;;;;22.15;83.75;100059.38;2082819;28;20154;-77
2023/08/26 00:54:08;;;;;;;15.38;11.93;;;;;;;22.14;83.85;100064.06;2090699;28;20139;-77
2023/08/26 00:55:10;;;;;;;16.55;11.90;;;;;;;22.14;83.67;100069.53;2083014;28;20030;-77
2023/08/26 00:56:14;;;;;;;13.43;10.18;;;;;;;22.14;83.57;100068.75;2082455;28;20033;-77
2023/08/26 00:57:19;;;;;;;17.90;10.30;;;;;;;22.13;83.61;100070.69;2074705;28;20061;-76
2023/08/26 00:58:21;;;;;;;14.23;10.88;;;;;;;22.13;83.65;100067.16;2090667;28;20076;-76
2023/08/26 00:59:23;;;;;;;13.07;10.10;;;;;;;22.12;83.50;100076.53;2084682;28;20070;-76
2023/08/26 01:00:35;;;;;;;15.18;11.07;;;;;;;22.13;83.66;100075.34;2083468;28;20030;-76
2023/08/26 01:01:38;;;;;;;13.73;10.68;;;;;;;22.12;83.58;100071.84;2075759;28;20089;-76
2023/08/26 01:02:40;;;;;;;13.75;10.40;;;;;;;22.12;83.59;100071.84;2091556;28;20789;-77
2023/08/26 01:03:49;;;;;;;12.73;9.95;;;;;;;22.12;83.54;100085.53;2098307;28;20151;-78
2023/08/26 01:04:52;;;;;;;14.23;9.52;;;;;;;22.11;83.63;100078.47;2083988;28;20168;-77
2023/08/26 01:05:56;;;;;;;14.13;10.88;;;;;;;22.12;83.58;100073.78;2090481;28;20065;-77
2023/08/26 01:06:57;;;;;;;13.95;11.00;;;;;;;22.11;83.58;100072.22;2090791;28;20902;-76
2023/08/26 01:08:03;;;;;;;13.90;10.77;;;;;;;22.11;83.51;100072.22;2082608;28;20046;-76
2023/08/26 01:09:05;;;;;;;12.10;10.35;;;;;;;22.11;83.62;100073.00;2083402;28;20032;-76
2023/08/26 01:10:11;;;;;;;16.75;11.40;;;;;;;22.10;83.42;100076.91;2082661;28;20094;-76
2023/08/26 01:12:10;;;;;;;16.48;11.45;;;;;;;22.10;83.65;100073.34;2082934;28;20049;-76
2023/08/26 01:13:14;;;;;;;16.50;11.20;;;;;;;22.08;83.43;100067.47;2061453;28;20162;-76
2023/08/26 01:14:24;;;;;;;17.67;10.85;;;;;;;22.09;83.49;100069.84;2067052;28;20888;-76
2023/08/26 01:15:32;;;;;;;15.07;11.02;;;;;;;22.08;83.27;100067.47;2083289;28;20034;-76
2023/08/26 01:16:40;;;;;;;15.95;10.90;;;;;;;22.08;83.36;100073.75;2093067;28;20037;-76
2023/08/26 01:17:42;;;;;;;16.50;11.45;;;;;;;22.08;83.38;100081.16;2090335;28;20034;-76
2023/08/26 01:18:44;;;;;;;17.77;11.60;;;;;;;22.07;83.37;100077.66;2082622;28;20029;-76
2023/08/26 01:19:46;;;;;;;14.68;11.40;;;;;;;22.07;83.35;100076.81;2082207;28;20033;-76
2023/08/26 01:20:49;;;;;;;17.73;12.55;;;;;;;22.07;83.35;100071.34;2090682;28;21525;-76
2023/08/26 01:21:54;;;;;;;18.27;13.85;;;;;;;22.05;83.20;100076.44;2082318;28;20145;-76
2023/08/26 01:22:56;;;;;;;19.30;12.40;;;;;;;22.03;83.39;100074.03;2082454;28;20033;-75
2023/08/26 01:24:04;;;;;;;14.32;11.60;;;;;;;22.02;83.44;100068.94;2082571;28;20124;-76
2023/08/26 01:25:09;;;;;;;14.88;12.05;;;;;;;21.99;83.30;100068.50;2098791;28;20029;-75
2023/08/26 01:26:12;;;;;;;16.60;11.82;;;;;;;21.99;83.30;100065.78;2098638;28;20977;-76
2023/08/26 01:27:16;;;;;;;18.88;12.20;;;;;;;21.98;83.24;100064.22;2098756;28;20025;-76
2023/08/26 01:28:20;;;;;;;16.63;12.15;;;;;;;21.97;83.22;100067.28;2098357;28;20041;-77
2023/08/26 01:29:29;;;;;;;16.55;11.75;;;;;;;21.96;83.32;100069.25;2092510;28;20042;-76
2023/08/26 01:30:31;;;;;;;17.23;12.77;;;;;;;21.96;83.28;100072.00;2098414;28;20807;-77
2023/08/26 01:31:39;;;;;;;17.23;11.43;;;;;;;21.93;83.26;100067.25;2082278;28;20081;-77
2023/08/26 01:32:53;;;;;;;15.73;11.73;;;;;;;21.96;83.18;100076.69;2082864;28;20037;-78
2023/08/26 01:34:20;;;;;;;13.25;10.48;;;;;;;21.95;83.13;100072.38;2086116;28;20048;-78
2023/08/26 01:35:30;;;;;;;16.90;11.65;;;;;;;21.95;83.08;100070.41;2091412;28;21150;-78
2023/08/26 01:36:38;;;;;;;16.95;12.25;;;;;;;21.94;83.06;100077.06;2083044;28;20030;-78
2023/08/26 01:37:45;;;;;;;15.70;11.20;;;;;;;21.93;83.04;100077.41;2091653;28;20045;-78
2023/08/26 01:38:49;;;;;;;14.10;10.82;;;;;;;21.92;83.17;100073.88;2091034;28;21336;-77
2023/08/26 01:39:53;;;;;;;15.65;11.15;;;;;;;21.92;82.95;100076.63;2082720;28;20026;-76
2023/08/26 01:41:01;;;;;;;15.90;10.88;;;;;;;21.92;82.86;100073.88;2091180;28;20029;-76
2023/08/26 01:42:04;;;;;;;13.15;10.52;;;;;;;21.91;82.79;100079.72;2090874;28;20073;-77
2023/08/26 01:43:08;;;;;;;12.32;10.07;;;;;;;21.89;82.86;100080.09;2107012;28;20029;-77
2023/08/26 01:44:11;;;;;;;17.20;10.65;;;;;;;21.89;82.77;100090.25;2098179;28;20024;-76
2023/08/26 01:45:18;;;;;;;12.93;10.38;;;;;;;21.88;82.80;100094.13;2082529;28;20049;-76
2023/08/26 01:46:35;;;;;;;12.45;10.63;;;;;;;21.87;82.69;100095.28;2099049;28;20159;-74
2023/08/26 01:47:42;;;;;;;14.40;11.18;;;;;;;21.86;82.68;100099.19;2098993;28;20922;-75
2023/08/26 01:48:43;;;;;;;14.50;10.23;;;;;;;21.84;82.67;100098.75;2082493;28;20025;-75
2023/08/26 01:49:47;;;;;;;15.63;11.07;;;;;;;21.82;82.83;100093.66;2082197;28;20030;-74
2023/08/26 01:50:50;;;;;;;16.75;12.15;;;;;;;21.80;82.84;100084.25;2098244;28;20870;-77
2023/08/26 01:51:54;;;;;;;16.75;11.45;;;;;;;21.78;83.05;100081.84;2073718;28;20038;-77
2023/08/26 01:52:56;;;;;;;15.32;10.82;;;;;;;21.72;83.13;100086.88;2073797;28;20026;-76
2023/08/26 01:54:01;;;;;;;16.50;11.25;;;;;;;21.68;83.20;100074.25;2090769;28;20037;-78
2023/08/26 01:55:06;;;;;;;14.38;9.63;;;;;;;21.70;83.23;100077.44;2098252;28;20036;-77
2023/08/26 01:56:10;;;;;;;14.35;9.95;;;;;;;21.70;83.34;100074.69;2089941;28;20041;-75
2023/08/26 01:57:12;;;;;;;11.65;9.77;;;;;;;21.70;83.38;100069.22;2090691;28;20875;-77
2023/08/26 01:58:14;;;;;;;15.23;10.60;;;;;;;21.69;83.32;100067.63;2098790;28;20136;-77
2023/08/26 01:59:18;;;;;;;12.75;9.85;;;;;;;21.69;83.39;100062.97;2090241;28;20018;-76
2023/08/26 02:00:23;;;;;;;15.15;10.52;;;;;;;21.68;83.37;100057.84;2090389;28;20108;-78
2023/08/26 02:01:25;;;;;;;17.42;10.68;;;;;;;21.67;83.25;100054.31;2089967;28;20033;-78
2023/08/26 02:02:30;;;;;;;12.70;9.75;;;;;;;21.68;83.14;100063.31;2082575;28;20809;-77
2023/08/26 02:03:34;;;;;;;13.60;10.85;;;;;;;21.66;83.06;100062.91;2108137;27;20062;-75
2023/08/26 02:04:37;;;;;;;15.23;11.27;;;;;;;21.66;83.24;100068.38;2114971;28;20084;-77
2023/08/26 02:05:39;;;;;;;13.20;9.77;;;;;;;21.65;83.25;100066.78;2098253;28;20025;-77
2023/08/26 02:06:46;;;;;;;12.35;9.70;;;;;;;21.60;83.36;100065.16;2091137;28;20068;-78
2023/08/26 02:07:48;;;;;;;12.07;9.30;;;;;;;21.64;83.39;100060.53;2091976;28;20056;-75
2023/08/26 02:08:56;;;;;;;12.07;9.57;;;;;;;21.63;83.33;100064.44;2105704;28;20803;-76
2023/08/26 02:10:01;;;;;;;13.25;10.73;;;;;;;21.62;83.45;100056.56;2104445;28;20045;-76
2023/08/26 02:11:06;;;;;;;13.05;10.30;;;;;;;21.62;83.31;100062.03;2088678;28;20251;-74
2023/08/26 02:12:11;;;;;;;13.32;10.27;;;;;;;21.62;83.28;100057.34;2090183;28;20224;-74
2023/08/26 02:13:15;;;;;;;12.85;9.68;;;;;;;21.61;83.22;100057.72;2097350;28;21562;-74
2023/08/26 02:14:22;;;;;;;14.48;9.95;;;;;;;21.60;83.10;100056.16;2097039;28;20040;-77
2023/08/26 02:15:25;;;;;;;15.05;9.30;;;;;;;21.60;83.13;100064.38;2080662;28;20030;-75
2023/08/26 02:16:27;;;;;;;15.75;10.02;;;;;;;21.57;83.13;100052.22;2073104;28;20780;-76
2023/08/26 02:17:37;;;;;;;13.15;9.52;;;;;;;21.59;83.26;100057.28;2097308;28;20041;-77
2023/08/26 02:18:41;;;;;;;12.15;9.98;;;;;;;21.58;83.21;100056.50;2104409;28;20040;-76
2023/08/26 02:19:44;;;;;;;12.07;9.30;;;;;;;21.59;83.14;100057.28;2105684;28;20759;-76
2023/08/26 02:20:48;;;;;;;15.50;9.38;;;;;;;21.56;83.01;100056.06;2088762;28;20045;-76
2023/08/26 02:22:00;;;;;;;12.18;9.90;;;;;;;21.55;83.13;100046.28;2089995;28;20820;-76
2023/08/26 02:23:06;;;;;;;12.68;9.30;;;;;;;21.55;83.22;100045.50;2097227;28;20183;-77
2023/08/26 02:24:12;;;;;;;12.73;9.73;;;;;;;21.54;83.03;100047.47;2097974;28;20037;-76
2023/08/26 02:25:17;;;;;;;14.18;9.70;;;;;;;21.54;83.18;100050.19;2096853;28;20033;-76
2023/08/26 02:26:19;;;;;;;13.52;9.95;;;;;;;21.53;83.27;100048.59;2097450;28;20036;-76
2023/08/26 02:27:26;;;;;;;12.68;10.07;;;;;;;21.52;83.31;100055.22;2105140;28;21310;-76
2023/08/26 02:28:27;;;;;;;13.15;9.98;;;;;;;;;;2088509;28;20119;-76
2023/08/26 02:29:31;;;;;;;12.38;9.85;;;;;;;21.50;83.42;100057.53;2080625;28;20038;-76
2023/08/26 02:30:34;;;;;;;14.18;9.02;;;;;;;21.48;83.54;100052.44;2065500;28;20850;-76
2023/08/26 02:31:38;;;;;;;13.95;10.27;;;;;;;21.49;83.31;100054.00;2056361;28;20043;-76
2023/08/26 02:32:40;;;;;;;13.38;9.50;;;;;;;21.48;83.34;100052.44;2065105;28;20892;-76
2023/08/26 02:33:45;;;;;;;13.10;9.68;;;;;;;21.46;83.25;100060.22;2080594;28;20182;-76
2023/08/26 02:34:50;;;;;;;15.68;9.63;;;;;;;21.45;83.43;100057.84;2088564;28;20083;-77
2023/08/26 02:35:52;;;;;;;12.85;10.00;;;;;;;21.46;83.30;100062.94;2073094;28;20181;-76
2023/08/26 02:36:58;;;;;;;13.75;10.50;;;;;;;21.46;83.28;100059.44;2089266;28;20041;-77
2023/08/26 02:38:02;;;;;;;12.18;10.15;;;;;;;21.45;83.23;100064.09;2104890;28;20036;-77
2023/08/26 02:39:12;;;;;;;13.98;10.18;;;;;;;21.45;83.36;100058.63;2096763;28;20036;-76
2023/08/26 02:40:14;;;;;;;14.95;10.23;;;;;;;21.44;83.37;100057.06;2081349;28;20030;-76
2023/08/26 02:41:23;;;;;;;13.85;10.02;;;;;;;21.43;83.44;100046.47;2088745;28;20884;-76
2023/08/26 02:42:29;;;;;;;;;;;;;;;21.43;83.33;100055.47;2089313;28;20131;-77
2023/08/26 02:43:35;;;;;;;13.23;10.18;;;;;;;21.42;83.48;100051.16;2090725;28;19986;-77
2023/08/26 02:44:39;;;;;;;16.55;10.80;;;;;;;21.41;82.97;100051.53;2088713;28;20038;-77
2023/08/26 02:45:46;;;;;;;12.07;9.90;;;;;;;21.41;83.30;100046.06;2081257;28;20038;-76
2023/08/26 02:46:47;;;;;;;16.77;11.55;;;;;;;21.40;83.43;100045.25;2080692;28;20041;-76
2023/08/26 02:47:50;;;;;;;13.02;10.40;;;;;;;21.41;83.17;100044.13;2072011;28;20041;-76
2023/08/26 02:48:52;;;;;;;13.77;10.85;;;;;;;21.40;83.16;100036.25;2064661;28;20039;-76
2023/08/26 02:49:54;;;;;;;12.57;9.57;;;;;;;21.36;83.42;100028.00;2073004;28;20038;-76
2023/08/26 02:50:59;;;;;;;15.25;10.32;;;;;;;21.37;82.96;100035.03;2080819;28;20022;-76
2023/08/26 02:52:07;;;;;;;12.75;10.27;;;;;;;21.37;83.44;100037.78;2066698;28;20090;-76
2023/08/26 02:53:15;;;;;;;12.95;9.80;;;;;;;21.37;83.26;100024.09;2082474;28;20053;-78
2023/08/26 02:54:16;;;;;;;12.65;10.45;;;;;;;21.34;83.31;100024.81;2081211;28;20030;-77
2023/08/26 02:55:24;;;;;;;14.82;10.43;;;;;;;21.36;83.20;100022.53;2081030;28;20156;-78
2023/08/26 02:56:26;;;;;;;13.85;10.32;;;;;;;21.34;83.24;100030.28;2081722;28;20088;-77
2023/08/26 02:57:29;;;;;;;13.50;10.98;;;;;;;21.33;83.18;100019.72;2081416;28;20140;-80
2023/08/26 02:58:31;;;;;;;14.25;10.02;;;;;;;21.29;83.17;100027.84;2072836;28;20112;-78
2023/08/26 02:59:35;;;;;;;13.60;11.38;;;;;;;21.32;83.25;100026.34;2090438;28;20041;-78
2023/08/26 03:00:37;;;;;;;15.15;10.48;;;;;;;21.29;83.28;100027.84;2089833;28;20730;-78
2023/08/26 03:01:39;;;;;;;16.20;11.32;;;;;;;21.30;83.15;100030.22;2089635;28;20040;-78
2023/08/26 03:02:41;;;;;;;13.02;10.40;;;;;;;21.29;83.29;100030.59;2081596;28;20038;-78
2023/08/26 03:03:43;;;;;;;15.13;11.20;;;;;;;21.29;83.07;100027.84;2073642;28;20070;-77
2023/08/26 03:04:45;;;;;;;14.57;10.80;;;;;;;21.27;83.10;100030.16;2065893;28;20145;-77
2023/08/26 03:05:49;;;;;;;14.48;10.20;;;;;;;21.26;83.23;100028.59;2073841;28;20145;-77
2023/08/26 03:06:52;;;;;;;13.82;10.25;;;;;;;21.24;83.15;100025.41;2073251;28;20097;-77
2023/08/26 03:07:54;;;;;;;13.13;10.40;;;;;;;21.24;83.23;100036.34;2082446;28;20042;-77
2023/08/26 03:08:57;;;;;;;15.00;9.85;;;;;;;21.24;83.13;100025.41;2096638;28;20063;-75
2023/08/26 03:10:07;;;;;;;13.45;10.48;;;;;;;21.21;83.13;100026.91;2090846;28;20069;-76
2023/08/26 03:11:13;;;;;;;15.95;11.48;;;;;;;21.20;83.21;100024.56;2091444;28;20080;-76
2023/08/26 03:12:18;;;;;;;14.52;10.50;;;;;;;21.20;83.27;100030.03;2090894;28;20033;-75
2023/08/26 03:13:20;;;;;;;13.65;10.50;;;;;;;21.20;83.22;100035.50;2082899;28;20114;-75
2023/08/26 03:14:24;;;;;;;14.52;10.85;;;;;;;21.19;83.23;100031.97;2075588;28;20042;-75
2023/08/26 03:15:29;;;;;;;14.45;10.65;;;;;;;21.18;83.17;100033.13;2084199;28;20148;-75
2023/08/26 03:16:31;;;;;;;15.75;10.55;;;;;;;21.16;83.27;100040.91;2098496;28;20021;-75
2023/08/26 03:17:38;;;;;;;15.82;11.15;;;;;;;21.16;83.28;100042.84;2100377;28;20037;-75
2023/08/26 03:18:40;;;;;;;13.68;10.27;;;;;;;21.16;83.23;100048.31;2090682;28;20154;-75
2023/08/26 03:19:42;;;;;;;14.32;10.38;;;;;;;21.14;83.36;100047.88;2091855;28;20119;-76
2023/08/26 03:20:47;;;;;;;15.18;10.85;;;;;;;21.14;83.30;100058.81;2090968;28;20042;-76
2023/08/26 03:21:51;;;;;;;15.82;10.98;;;;;;;21.14;83.46;100056.09;2075956;28;20026;-75
2023/08/26 03:22:55;;;;;;;13.05;10.63;;;;;;;21.12;83.33;100053.69;2091840;28;20155;-75
2023/08/26 03:24:00;;;;;;;14.98;11.13;;;;;;;21.12;83.63;100050.19;2091198;28;20069;-75
2023/08/26 03:25:04;;;;;;;14.75;10.65;;;;;;;21.11;83.44;100060.31;2084086;28;20038;-76
2023/08/26 03:26:06;;;;;;;15.05;10.98;;;;;;;21.09;83.29;100054.44;2099423;28;20025;-76
2023/08/26 03:27:10;;;;;;;12.27;10.02;;;;;;;21.11;83.35;100067.75;2099704;28;20174;-76
2023/08/26 03:28:14;;;;;;;13.85;10.68;;;;;;;21.08;83.64;100055.59;2090732;28;21013;-75
2023/08/26 03:29:21;;;;;;;13.25;10.88;;;;;;;21.09;83.50;100051.72;2101097;28;20025;-78
2023/08/26 03:30:26;;;;;;;13.70;10.43;;;;;;;21.06;83.41;100053.22;2090343;28;20100;-79
2023/08/26 03:31:28;;;;;;;15.57;10.65;;;;;;;21.06;83.46;100042.28;2091602;28;20053;-79
2023/08/26 03:32:36;;;;;;;16.65;11.52;;;;;;;21.06;83.45;100047.75;2099543;28;20025;-79
2023/08/26 03:33:43;;;;;;;14.20;11.23;;;;;;;21.04;83.53;100041.84;2090490;28;20175;-78
2023/08/26 03:34:50;;;;;;;15.73;11.18;;;;;;;21.04;83.41;100039.13;2092730;28;20021;-78
2023/08/26 03:35:56;;;;;;;13.68;11.40;;;;;;;21.03;83.63;100037.53;2090755;28;20156;-79
2023/08/26 03:37:01;;;;;;;16.10;12.10;;;;;;;21.03;83.64;100031.28;2084401;28;20880;-78
2023/08/26 03:38:06;;;;;;;14.55;11.25;;;;;;;21.02;83.80;100030.47;2091083;28;20017;-79
2023/08/26 03:39:08;;;;;;;14.15;10.77;;;;;;;21.02;83.75;100035.16;2099519;28;20783;-79
2023/08/26 03:40:14;;;;;;;16.33;12.15;;;;;;;21.01;83.62;100034.38;2099178;28;20029;-79
2023/08/26 03:41:19;;;;;;;14.40;11.68;;;;;;;20.96;83.75;100029.19;2099390;28;21173;-78
2023/08/26 03:42:21;;;;;;;17.50;11.70;;;;;;;21.00;84.02;100037.47;2082797;28;20073;-79
2023/08/26 03:43:27;;;;;;;15.88;11.35;;;;;;;21.00;83.91;100038.25;2084570;28;20034;-79
2023/08/26 03:44:29;;;;;;;12.15;10.20;;;;;;;20.99;83.91;100035.88;2116368;28;20965;-78
2023/08/26 03:45:38;;;;;;;13.52;10.32;;;;;;;20.99;83.98;100039.41;2107625;28;20016;-78
2023/08/26 03:46:40;;;;;;;15.90;11.13;;;;;;;20.99;84.06;100042.13;2099382;28;20025;-79
2023/08/26 03:47:47;;;;;;;13.98;11.32;;;;;;;20.98;83.99;100046.03;2091400;28;20040;-77
2023/08/26 03:48:50;;;;;;;12.90;10.82;;;;;;;20.99;84.08;100050.34;2091642;28;20143;-78
2023/08/26 03:49:52;;;;;;;15.50;10.18;;;;;;;20.98;84.13;100048.75;2082756;28;20152;-78
2023/08/26 03:50:56;;;;;;;16.63;12.43;;;;;;;20.98;84.23;100056.97;2082985;28;20837;-79
2023/08/26 03:52:00;;;;;;;13.75;10.43;;;;;;;20.96;84.27;100042.06;2090868;28;20044;-79
2023/08/26 03:53:01;;;;;;;14.32;11.00;;;;;;;20.95;84.29;100049.47;2074432;28;20066;-78
2023/08/26 03:54:10;;;;;;;12.93;10.50;;;;;;;20.96;83.99;100047.53;2067209;28;20035;-78
2023/08/26 03:55:14;;;;;;;16.65;10.75;;;;;;;20.94;84.12;100039.72;2075893;28;20034;-77
2023/08/26 03:56:19;;;;;;;14.02;10.75;;;;;;;20.94;83.91;100047.91;2090858;28;20037;-78
2023/08/26 03:57:23;;;;;;;15.00;11.13;;;;;;;20.94;84.07;100042.44;2082433;28;20119;-77
2023/08/26 03:58:27;;;;;;;13.50;11.07;;;;;;;20.93;84.04;100046.34;2083026;28;20055;-78
2023/08/26 03:59:29;;;;;;;14.30;10.80;;;;;;;20.93;83.83;100040.06;2074665;28;20050;-78
2023/08/26 04:00:30;;;;;;;13.20;10.98;;;;;;;20.93;83.79;100045.53;2075049;28;20150;-77
2023/08/26 04:01:35;;;;;;;14.07;10.70;;;;;;;20.90;83.98;100043.50;2091322;28;20038;-77
2023/08/26 04:02:37;;;;;;;13.32;10.88;;;;;;;20.90;83.83;100055.25;2083076;28;20095;-76
2023/08/26 04:03:41;;;;;;;14.57;11.27;;;;;;;20.89;84.08;100059.13;2074414;28;20081;-76
2023/08/26 04:04:43;;;;;;;15.15;11.32;;;;;;;20.89;84.15;100061.06;2066626;28;20077;-76
2023/08/26 04:05:45;;;;;;;13.50;11.18;;;;;;;20.88;84.06;100057.53;2083477;28;20911;-76
2023/08/26 04:06:48;;;;;;;17.42;11.40;;;;;;;20.88;84.37;100063.00;2099071;28;20876;-77
2023/08/26 04:07:53;;;;;;;16.95;11.57;;;;;;;20.89;84.50;100061.06;2091141;28;20048;-77
2023/08/26 04:09:02;;;;;;;14.02;10.38;;;;;;;20.88;84.33;100063.00;2098427;28;20025;-76
2023/08/26 04:10:10;;;;;;;14.50;10.77;;;;;;;20.89;84.48;100059.13;2099441;28;20041;-76
2023/08/26 04:11:11;;;;;;;13.40;10.82;;;;;;;20.89;84.62;100058.34;2083261;28;20901;-75
2023/08/26 04:12:15;;;;;;;14.60;11.20;;;;;;;20.89;84.71;100061.84;2082968;28;20936;-76
2023/08/26 04:13:24;;;;;;;15.38;11.15;;;;;;;20.89;84.71;100064.59;2074629;28;20070;-78
2023/08/26 04:14:26;;;;;;;14.38;11.10;;;;;;;20.89;84.93;100063.78;2069779;28;20886;-77
2023/08/26 04:15:31;;;;;;;13.60;10.95;;;;;;;20.91;85.03;100073.22;2091035;28;20823;-76
2023/08/26 04:16:33;;;;;;;13.43;10.23;;;;;;;20.90;85.24;100077.13;2083461;28;20121;-76
2023/08/26 04:17:37;;;;;;;14.30;11.13;;;;;;;20.90;85.38;100071.66;2082692;28;20081;-78
2023/08/26 04:18:47;;;;;;;13.90;11.00;;;;;;;20.90;85.41;100066.19;2092068;28;21301;-78
2023/08/26 04:19:49;;;;;;;14.07;10.80;;;;;;;20.89;85.47;100067.31;2090956;28;20115;-78
2023/08/26 04:20:52;;;;;;;12.93;10.43;;;;;;;20.91;85.38;100061.50;2074873;28;20777;-77
2023/08/26 04:21:58;;;;;;;14.38;11.00;;;;;;;20.90;85.53;100057.16;2075918;28;20038;-77
2023/08/26 04:23:02;;;;;;;16.75;11.25;;;;;;;20.93;85.55;100053.72;2092277;28;20092;-78
2023/08/26 04:24:03;;;;;;;15.88;11.57;;;;;;;20.92;85.66;100047.47;2098703;28;20127;-77
2023/08/26 04:25:08;;;;;;;16.17;11.50;;;;;;;20.93;85.64;100046.34;2082477;28;20033;-76
2023/08/26 04:26:14;;;;;;;16.05;12.20;;;;;;;20.94;85.64;100060.78;2075653;28;20038;-76
2023/08/26 04:27:19;;;;;;;15.07;12.18;;;;;;;20.94;85.73;100055.31;2091634;28;20035;-76
2023/08/26 04:28:26;;;;;;;15.95;11.45;;;;;;;20.94;85.98;100061.56;2097985;28;20773;-76
2023/08/26 04:29:31;;;;;;;14.95;11.55;;;;;;;20.94;85.95;100069.78;2075027;28;20073;-76
2023/08/26 04:30:40;;;;;;;15.73;11.20;;;;;;;20.96;85.99;100059.25;2089791;28;21087;-76
2023/08/26 04:31:42;;;;;;;14.73;10.70;;;;;;;20.96;86.23;100063.94;2084697;28;20037;-77
2023/08/26 04:32:47;;;;;;;13.63;11.35;;;;;;;20.97;86.23;100060.06;2090931;28;20051;-78
2023/08/26 04:33:51;;;;;;;16.95;11.68;;;;;;;20.97;86.02;100049.91;2100243;28;20032;-77
2023/08/26 04:34:57;;;;;;;14.25;11.50;;;;;;;20.99;86.12;100044.09;2098232;28;20029;-76
2023/08/26 04:36:03;;;;;;;16.10;11.95;;;;;;;20.99;86.39;100044.09;2083491;28;20164;-76
2023/08/26 04:37:05;;;;;;;16.50;12.57;;;;;;;20.99;86.20;100044.88;2082606;28;20208;-77
2023/08/26 04:38:07;;;;;;;18.90;13.15;;;;;;;21.01;86.25;100044.53;2074232;28;20113;-76
2023/08/26 04:39:12;;;;;;;14.57;10.57;;;;;;;21.00;86.25;100046.47;2075197;28;20031;-76
2023/08/26 04:40:14;;;;;;;15.13;10.88;;;;;;;21.02;86.13;100048.81;2099356;28;20041;-76
2023/08/26 04:41:16;;;;;;;15.00;12.07;;;;;;;21.01;86.26;100037.09;2090548;28;20025;-76
2023/08/26 04:42:22;;;;;;;14.70;11.02;;;;;;;21.04;86.33;100047.31;2083815;28;20030;-76
2023/08/26 04:43:26;;;;;;;14.38;11.80;;;;;;;21.02;86.39;100052.34;2090853;28;20088;-77
2023/08/26 04:44:30;;;;;;;14.23;11.43;;;;;;;21.06;86.21;100046.97;2090006;28;20029;-76
2023/08/26 04:45:39;;;;;;;17.05;12.20;;;;;;;21.07;86.36;100051.28;2092010;28;21234;-77
2023/08/26 04:46:41;;;;;;;16.05;12.35;;;;;;;21.06;86.44;100053.22;2081367;28;20034;-77
2023/08/26 04:47:46;;;;;;;14.55;11.15;;;;;;;21.07;86.36;100051.28;2075215;28;20038;-77
2023/08/26 04:48:48;;;;;;;14.73;11.45;;;;;;;21.09;86.28;100056.38;2082123;28;20033;-77
2023/08/26 04:49:58;;;;;;;14.75;11.45;;;;;;;21.09;86.38;100059.09;2074917;28;20042;-77
2023/08/26 04:51:17;;;;;;;16.33;11.80;;;;;;;21.10;86.17;100061.50;2085687;28;20033;-77
2023/08/26 04:52:19;;;;;;;15.52;11.45;;;;;;;21.10;86.16;100063.44;2091136;28;20160;-76
2023/08/26 04:53:23;;;;;;;26.80;13.07;;;;;;;21.11;86.02;100060.31;2107540;28;20135;-76
2023/08/26 04:54:26;;;;;;;15.73;11.80;;;;;;;21.11;86.19;100049.38;2090849;28;20039;-77
2023/08/26 04:55:31;;;;;;;15.55;11.85;;;;;;;21.12;86.31;100050.19;2099165;28;20033;-77